Latest Weather Observations for Swan Island

IDT60801

Issued at 12:41 am EST Friday 23 April 2021 (issued every 10 minutes, with the page automatically refreshed every 10 minutes)

About weather observations | Map of weather stations | Latest weather observations for TAS | Other Formats
Station Details ID: 092123 Name: SWAN ISLAND Lat: -40.73 Lon: 148.12 Height: 15.0 m
Data from the previous 72 hours. | See also: Recent months at Swan Island
Date/Time
EST
Temp
°C
App
Temp
°C
Dew
Point
°C
Rel
Hum
%
Delta-T
°C
Wind Press
QNH
hPa
Press
MSL
hPa
Rain since
9am
mm
Dir  Spd
km/h
Gust
km/h
Spd
kts
Gust
kts
23/12:30am 13.4 5.0 5.8 60 3.6 W 39 54 21 29 1007.0 1007.0 0.2
23/12:14am 13.2 5.6 7.6 69 2.7 W 37 57 20 31 1006.9 1006.9 0.2
23/12:00am 13.4 4.6 7.2 66 3.0 W 43 56 23 30 1006.8 1006.8 0.2
 
Date/Time
EST
Temp
°C
App
Temp
°C
Dew
Point
°C
Rel
Hum
%
Delta-T
°C
Wind Press
QNH
hPa
Press
MSL
hPa
Rain since
9am
mm
Dir  Spd
km/h
Gust
km/h
Spd
kts
Gust
kts
22/11:30pm 13.5 5.6 7.7 68 2.9 W 39 56 21 30 1006.6 1006.6 0.2
22/11:00pm 13.5 5.6 7.9 69 2.8 W 39 56 21 30 1006.6 1006.6 0.2
22/10:30pm 13.5 5.4 6.8 64 3.2 W 39 54 21 29 1006.6 1006.6 0.2
22/10:01pm 13.6 5.0 6.7 63 3.3 W 41 61 22 33 1006.6 1006.6 0.2
22/10:00pm 13.6 4.6 6.5 62 3.4 W 43 61 23 33 1006.6 1006.6 0.2
22/09:58pm 13.6 5.2 7.4 66 3.0 W 41 61 22 33 1006.7 1006.7 0.2
22/09:30pm 13.7 6.2 8.1 69 2.8 W 37 52 20 28 1006.6 1006.6 0.2
22/09:00pm 13.7 4.9 8.1 69 2.8 W 44 57 24 31 1006.2 1006.2 0.2
22/08:32pm 14.1 6.3 8.3 68 2.9 W 39 57 21 31 1005.7 1005.7 0.2
22/08:30pm 14.2 6.0 8.4 68 2.9 W 41 59 22 32 1005.7 1005.7 0.2
22/08:00pm 14.0 6.2 8.4 69 2.8 W 39 59 21 32 1005.5 1005.5 0.2
22/07:46pm 14.0 6.7 8.6 70 2.7 W 37 57 20 31 1005.4 1005.4 0.2
22/07:30pm 14.1 7.2 8.7 70 2.7 W 35 52 19 28 1005.2 1005.2 0.2
22/07:09pm 14.1 7.9 9.3 73 2.5 WNW 32 50 17 27 1005.1 1005.1 0.2
22/07:00pm 14.2 7.9 9.6 74 2.4 WNW 33 50 18 27 1004.9 1004.9 0.2
22/06:30pm 14.0 7.0 9.8 76 2.2 WNW 37 57 20 31 1004.5 1004.5 0.2
22/06:04pm 14.4 7.6 10.8 79 1.9 WNW 37 56 20 30 1004.0 1004.0 0.2
22/06:00pm 14.4 7.6 10.8 79 1.9 WNW 37 50 20 27 1003.9 1003.9 0.2
22/05:30pm 14.4 7.0 10.0 75 2.3 WNW 39 61 21 33 1003.8 1003.8 0.2
22/05:00pm 14.2 6.0 9.8 75 2.3 WNW 43 67 23 36 1003.5 1003.5 0.2
22/04:30pm 14.7 8.1 10.1 74 2.4 WNW 35 57 19 31 1003.3 1003.3 0.2
22/04:03pm 15.0 7.6 10.0 72 2.6 WNW 39 57 21 31 1003.3 1003.3 0.2
22/04:00pm 14.9 7.1 9.9 72 2.6 WNW 41 57 22 31 1003.2 1003.2 0.2
22/03:30pm 15.3 7.9 9.7 69 2.9 WNW 39 59 21 32 1002.9 1002.9 0.2
22/03:00pm 15.4 7.1 9.5 68 3.1 WNW 43 69 23 37 1002.9 1002.9 0.0
22/02:30pm 14.5 6.7 9.9 74 2.4 WNW 41 59 22 32 1002.7 1002.7 0.0
22/02:02pm 14.9 6.6 9.3 69 2.9 WNW 43 61 23 33 1002.6 1002.6 0.0
22/02:00pm 15.1 7.2 9.5 69 2.9 WNW 41 57 22 31 1002.6 1002.6 0.0
22/01:30pm 15.3 7.7 9.2 67 3.1 W 39 63 21 34 1002.6 1002.6 0.0
22/01:00pm 15.3 7.2 8.8 65 3.3 WNW 41 59 22 32 1002.8 1002.8 0.0
22/12:30pm 15.4 7.6 8.4 63 3.5 WNW 39 61 21 33 1003.3 1003.3 0.0
22/12:00pm 15.6 7.8 8.1 61 3.8 W 39 57 21 31 1003.8 1003.8 0.0
22/11:30am 15.0 7.1 7.8 62 3.6 WNW 39 61 21 33 1003.9 1003.9 0.0
22/11:00am 14.5 5.3 8.2 66 3.2 W 46 67 25 36 1004.0 1004.0 0.0
22/10:30am 14.5 5.9 8.7 68 2.9 W 44 65 24 35 1004.2 1004.2 0.0
22/10:15am 14.1 6.6 9.3 73 2.5 W 39 57 21 31 1004.2 1004.2 0.0
22/10:00am 13.8 5.4 9.0 73 2.4 W 43 59 23 32 1004.4 1004.4 0.0
22/09:35am 14.3 7.7 10.1 76 2.2 W 35 56 19 30 1004.6 1004.6 0.0
22/09:30am 14.2 8.2 10.2 77 2.1 WNW 32 48 17 26 1004.6 1004.6 0.0
22/09:00am 13.9 6.9 9.9 77 2.1 W 37 56 20 30 1005.0 1005.0 4.2
22/08:30am 12.2 6.6 10.3 88 1.0 WNW 30 46 16 25 1004.7 1004.7 4.2
22/08:01am 12.8 7.3 11.9 94 0.5 WNW 32 52 17 28 1004.5 1004.5 4.2
22/08:00am 12.8 7.1 11.9 94 0.5 W 33 52 18 28 1004.5 1004.5 4.2
22/07:36am 13.0 5.3 11.4 90 0.8 WNW 43 61 23 33 1004.3 1004.3 3.6
22/07:30am 14.1 5.8 12.5 90 0.9 WNW 48 63 26 34 1004.0 1004.0 2.6
22/07:12am 14.5 5.2 11.7 83 1.5 WNW 52 70 28 38 1003.8 1003.8 2.4
22/07:00am 14.5 6.1 12.2 86 1.3 NW 48 65 26 35 1003.8 1003.8 2.4
22/06:36am 14.1 6.0 12.1 88 1.1 NW 46 67 25 36 1004.1 1004.1 2.4
22/06:30am 14.0 5.9 11.9 87 1.1 NW 46 61 25 33 1004.2 1004.2 2.4
22/06:04am 14.1 5.5 11.6 85 1.3 NW 48 69 26 37 1004.4 1004.4 2.4
22/06:00am 14.0 4.9 11.3 84 1.4 NW 50 69 27 37 1004.5 1004.5 2.4
22/05:57am 13.8 5.1 11.3 85 1.3 NW 48 69 26 37 1004.5 1004.5 2.4
22/05:30am 13.6 6.1 12.0 90 0.9 NW 43 59 23 32 1004.8 1004.8 2.4
22/05:00am 13.1 5.3 11.7 91 0.7 NW 44 69 24 37 1005.1 1005.1 2.4
22/04:30am 13.8 6.0 11.3 85 1.3 NW 43 61 23 33 1005.1 1005.1 2.0
22/04:00am 13.2 5.0 11.6 90 0.9 NW 46 69 25 37 1005.1 1005.1 2.0
22/03:46am 13.0 6.1 11.6 91 0.7 WNW 39 59 21 32 1005.5 1005.5 1.8
22/03:30am 13.1 5.6 11.0 87 1.1 NW 41 57 22 31 1005.6 1005.6 0.6
22/03:18am 13.9 6.1 11.1 83 1.5 NW 43 61 23 33 1005.7 1005.7 0.4
22/03:00am 13.6 5.8 11.0 84 1.4 NW 43 59 23 32 1005.9 1005.9 0.4
22/02:30am 13.6 4.8 10.8 83 1.5 NW 48 65 26 35 1006.3 1006.3 0.4
22/02:18am 14.1 5.3 9.5 74 2.4 NW 46 65 25 35 1006.3 1006.3 0.4
22/02:00am 14.1 4.8 9.3 73 2.5 NW 48 63 26 34 1006.6 1006.6 0.4
22/01:30am 13.7 5.1 10.3 80 1.8 NW 46 61 25 33 1007.0 1007.0 0.4
22/01:11am 13.6 6.4 10.4 81 1.7 NW 39 67 21 36 1007.1 1007.1 0.4
22/01:00am 13.4 5.3 10.2 81 1.7 NW 43 57 23 31 1007.4 1007.4 0.4
22/12:44am 13.5 5.4 9.9 79 1.9 WNW 43 69 23 37 1007.5 1007.5 0.4
22/12:30am 12.9 5.2 10.3 84 1.3 NW 41 56 22 30 1007.5 1007.5 0.4
22/12:11am 13.7 6.4 10.1 79 1.9 NW 39 67 21 36 1007.8 1007.8 0.0
22/12:00am 13.6 6.2 9.8 78 2.0 NW 39 54 21 29 1007.8 1007.8 0.0
 
Date/Time
EST
Temp
°C
App
Temp
°C
Dew
Point
°C
Rel
Hum
%
Delta-T
°C
Wind Press
QNH
hPa
Press
MSL
hPa
Rain since
9am
mm
Dir  Spd
km/h
Gust
km/h
Spd
kts
Gust
kts
21/11:47pm 13.5 6.0 9.4 76 2.1 WNW 39 57 21 31 1008.1 1008.1 0.0
21/11:30pm 13.4 5.6 9.6 78 1.9 NW 41 56 22 30 1008.4 1008.4 0.0
21/11:00pm 13.0 5.5 9.3 78 1.9 WNW 39 54 21 29 1009.0 1009.0 0.0
21/10:30pm 13.2 6.1 9.5 78 1.9 WNW 37 52 20 28 1009.4 1009.4 0.0
21/10:02pm 13.0 5.0 9.1 77 2.0 WNW 41 59 22 32 1010.1 1010.1 0.0
21/10:00pm 12.9 4.5 8.8 76 2.1 NW 43 59 23 32 1010.2 1010.2 0.0
21/09:43pm 13.2 5.9 8.9 75 2.2 WNW 37 56 20 30 1010.4 1010.4 0.0
21/09:30pm 12.8 6.3 9.1 78 1.9 NW 33 48 18 26 1010.4 1010.4 0.0
21/09:00pm 12.9 5.3 9.0 77 2.0 NW 39 50 21 27 1010.6 1010.6 0.0
21/08:30pm 13.1 6.1 8.4 73 2.3 WNW 35 52 19 28 1010.7 1010.7 0.0
21/08:00pm 12.8 5.6 7.5 70 2.6 WNW 35 50 19 27 1010.7 1010.7 0.0
21/07:30pm 12.5 5.8 7.4 71 2.5 WNW 32 44 17 24 1011.0 1010.9 0.0
21/07:00pm 11.9 4.6 7.4 74 2.2 WNW 35 57 19 31 1011.4 1011.3 0.0
21/06:55pm 12.9 5.9 6.9 67 2.9 WNW 33 57 18 31 1011.2 1011.1 0.0
21/06:30pm 12.1 5.6 6.6 69 2.6 WNW 30 44 16 24 1011.3 1011.2 0.0
21/06:10pm 12.4 5.5 7.3 71 2.5 WNW 33 52 18 28 1011.2 1011.1 0.0
21/06:00pm 12.9 6.4 6.5 65 3.1 WNW 30 43 16 23 1011.2 1011.1 0.0
21/05:30pm 12.5 4.5 5.9 64 3.1 WNW 37 50 20 27 1011.4 1011.3 0.0
21/05:00pm 11.7 3.8 6.4 70 2.5 WNW 37 54 20 29 1011.6 1011.5 0.0
21/04:30pm 12.4 5.3 6.2 66 2.9 WNW 33 44 18 24 1011.5 1011.4 0.0
21/04:00pm 12.4 6.8 5.3 62 3.3 WNW 24 35 13 19 1011.7 1011.6 0.0
21/03:30pm 12.6 6.2 5.1 60 3.5 WNW 28 37 15 20 1011.9 1011.8 0.0
21/03:00pm 12.3 5.6 3.8 56 3.8 WNW 28 44 15 24 1012.3 1012.2 0.0
21/02:30pm 12.7 6.1 4.2 56 3.9 WNW 28 41 15 22 1012.5 1012.4 0.0
21/02:00pm 13.2 7.2 3.6 52 4.3 WNW 24 35 13 19 1012.6 1012.5 0.0
21/01:30pm 13.9 7.5 3.4 49 4.7 WNW 26 39 14 21 1012.9 1012.8 0.0
21/01:00pm 13.7 8.2 4.0 52 4.4 WNW 22 33 12 18 1013.2 1013.1 0.0
21/12:30pm 14.2 9.4 5.6 56 4.1 WNW 20 32 11 17 1013.7 1013.6 0.0
21/12:00pm 13.4 8.6 4.6 55 4.0 WNW 19 28 10 15 1014.4 1014.3 0.0
21/11:30am 13.8 9.2 3.9 51 4.5 WNW 17 28 9 15 1014.8 1014.7 0.0
21/11:00am 12.8 9.9 6.4 65 3.0 W 11 17 6 9 1014.8 1014.7 0.0
21/10:30am 12.0 8.6 4.0 58 3.6 WNW 11 19 6 10 1015.2 1015.1 0.0
21/10:00am 13.3 10.9 1.9 46 4.9 E 4 6 2 3 1015.3 1015.2 0.0
21/09:30am 13.2 11.6 4.4 55 4.0 ESE 2 4 1 2 1015.4 1015.3 0.0
21/09:00am 11.5 9.6 4.7 63 3.1 SE 4 7 2 4 1015.2 1015.1 5.8
21/08:30am 10.5 8.6 4.9 68 2.5 SSE 4 7 2 4 1015.2 1015.1 5.8
21/08:00am 10.1 7.9 5.5 73 2.1 SSE 6 7 3 4 1015.2 1015.1 5.8
21/07:30am 9.5 7.8 3.9 68 2.5 SSW 2 2 1 1 1015.0 1014.9 5.8
21/07:00am 8.8 6.6 3.6 70 2.2 SSW 4 4 2 2 1014.9 1014.8 5.8
21/06:30am 8.5 6.1 2.1 64 2.7 SSW 4 7 2 4 1014.8 1014.7 5.8
21/06:00am 7.3 4.5 2.2 70 2.1 SW 6 7 3 4 1014.7 1014.6 5.8
21/05:30am 6.4 3.4 2.3 75 1.7 SW 7 9 4 5 1014.4 1014.3 5.8
21/05:00am 6.3 2.9 2.0 74 1.7 SW 9 11 5 6 1014.4 1014.3 5.8
21/04:30am 6.1 2.7 2.0 75 1.7 WSW 9 13 5 7 1014.1 1014.0 5.8
21/04:00am 6.6 2.9 2.5 75 1.7 SW 11 13 6 7 1013.9 1013.8 5.8
21/03:30am 6.8 3.5 2.5 74 1.8 SW 9 11 5 6 1013.6 1013.5 5.8
21/03:00am 7.7 4.0 2.2 68 2.3 SW 11 15 6 8 1013.5 1013.4 5.8
21/02:30am 8.0 4.7 2.5 68 2.3 SW 9 15 5 8 1013.5 1013.4 5.8
21/02:00am 8.2 4.1 2.2 66 2.5 SW 13 20 7 11 1013.3 1013.2 5.8
21/01:30am 8.2 4.2 2.9 69 2.2 SW 13 19 7 10 1013.2 1013.1 5.8
21/01:00am 8.0 4.5 3.7 74 1.8 SSW 11 17 6 9 1013.0 1012.9 5.8
21/12:30am 8.6 4.1 4.0 73 2.0 S 17 24 9 13 1013.0 1012.9 5.8
21/12:00am 8.9 3.8 4.3 73 2.0 S 20 30 11 16 1012.7 1012.6 5.8
 
Date/Time
EST
Temp
°C
App
Temp
°C
Dew
Point
°C
Rel
Hum
%
Delta-T
°C
Wind Press
QNH
hPa
Press
MSL
hPa
Rain since
9am
mm
Dir  Spd
km/h
Gust
km/h
Spd
kts
Gust
kts
20/11:30pm 9.3 3.9 4.3 71 2.2 S 22 32 12 17 1012.3 1012.2 5.8
20/11:00pm 9.3 3.5 4.3 71 2.2 S 24 39 13 21 1012.2 1012.1 5.8
20/10:30pm 9.3 3.1 4.5 72 2.1 S 26 41 14 22 1012.4 1012.3 5.8
20/10:00pm 9.3 2.4 4.5 72 2.1 SSE 30 39 16 21 1012.2 1012.1 5.8
20/09:30pm 9.2 2.4 5.2 76 1.8 SSE 30 37 16 20 1011.7 1011.6 5.8
20/09:00pm 8.8 1.7 5.5 80 1.5 S 32 46 17 25 1011.4 1011.3 5.8
20/08:30pm 9.0 1.9 5.7 80 1.5 S 32 43 17 23 1010.9 1010.8 5.8
20/08:00pm 9.5 1.8 5.5 76 1.8 SSE 35 48 19 26 1010.4 1010.4 5.6
20/07:30pm 9.6 0.8 5.4 75 1.9 SSE 41 50 22 27 1009.9 1009.9 5.6
20/07:00pm 9.6 2.0 6.0 78 1.7 SSE 35 48 19 26 1009.4 1009.4 5.6
20/06:30pm 9.5 1.6 6.4 81 1.4 SSE 37 48 20 26 1009.0 1009.0 5.6
20/06:00pm 9.3 1.1 6.7 84 1.2 SSE 39 52 21 28 1008.2 1008.2 5.6
20/05:30pm 9.5 1.2 7.6 88 0.9 SSE 41 54 22 29 1007.7 1007.7 5.6
20/05:00pm 8.9 1.0 7.7 92 0.6 SSE 39 52 21 28 1007.3 1007.3 5.4
20/04:30pm 10.5 3.0 8.1 85 1.2 SSE 37 50 20 27 1006.5 1006.5 2.4
20/04:23pm 11.7 7.9 8.9 83 1.4 SE 19 41 10 22 1006.4 1006.4 2.2
20/04:00pm 12.8 12.2 10.3 85 1.3 SW 4 7 2 4 1006.0 1006.0 2.2
20/03:30pm 12.3 10.2 9.7 84 1.3 W 11 20 6 11 1006.1 1006.1 2.2
20/03:00pm 12.9 8.9 10.3 84 1.3 W 22 30 12 16 1005.8 1005.8 2.0
20/02:30pm 13.2 8.6 9.8 80 1.7 W 24 33 13 18 1005.4 1005.4 2.0
20/02:00pm 14.1 9.8 9.5 74 2.4 WNW 22 33 12 18 1005.2 1005.2 1.8
20/01:30pm 14.5 9.9 9.7 73 2.5 W 24 35 13 19 1005.0 1005.0 1.8
20/01:00pm 14.4 10.2 9.6 73 2.5 W 22 33 12 18 1005.2 1005.2 1.8
20/12:30pm 14.1 9.0 9.1 72 2.5 W 26 39 14 21 1005.5 1005.5 1.8
20/12:00pm 14.6 10.0 9.6 72 2.6 WNW 24 37 13 20 1005.3 1005.3 1.8
20/11:30am 14.2 9.6 9.8 75 2.3 WNW 24 39 13 21 1005.1 1005.1 1.8
20/11:00am 13.9 9.0 9.9 77 2.1 WNW 26 37 14 20 1005.0 1005.0 1.8
20/10:30am 13.6 9.5 10.0 79 1.9 WNW 22 39 12 21 1005.0 1005.0 1.8
20/10:00am 13.8 8.3 11.8 88 1.1 W 32 43 17 23 1004.8 1004.8 1.8
20/09:30am 14.4 9.1 13.0 91 0.8 W 33 46 18 25 1004.7 1004.7 1.8
20/09:16am 15.2 6.3 11.8 80 1.8 NW 50 80 27 43 1004.7 1004.7 1.4
20/09:14am 16.4 7.2 12.2 76 2.3 NW 52 80 28 43 1004.0 1004.0 0.0
20/09:00am 16.6 8.2 12.4 76 2.3 NW 48 61 26 33 1004.5 1004.5 3.4
20/08:30am 16.6 7.9 12.4 76 2.3 NW 50 69 27 37 1004.9 1004.9 3.4
20/08:01am 16.4 9.0 12.4 77 2.2 NW 43 61 23 33 1005.0 1005.0 3.4
20/08:00am 16.4 9.0 12.4 77 2.2 NW 43 57 23 31 1005.0 1005.0 3.4
20/07:30am 16.1 9.2 12.7 80 1.9 NW 41 59 22 32 1005.0 1005.0 3.4
20/07:07am 16.1 9.6 12.8 81 1.8 NW 39 57 21 31 1004.8 1004.8 3.4
20/07:00am 16.0 9.8 12.7 81 1.8 NW 37 52 20 28 1004.9 1004.9 3.4
20/06:30am 15.9 9.9 13.2 84 1.5 NW 37 54 20 29 1005.1 1005.1 3.4
20/06:00am 14.9 9.8 12.0 83 1.6 WNW 30 41 16 22 1005.4 1005.4 3.4
20/05:30am 16.0 9.3 13.3 84 1.5 NW 41 61 22 33 1005.3 1005.3 3.4
20/05:29am 16.0 9.3 13.3 84 1.5 NW 41 61 22 33 1005.3 1005.3 3.4
20/05:00am 16.0 6.8 13.3 84 1.5 NW 54 69 29 37 1005.3 1005.3 3.4
20/04:30am 15.8 7.8 13.5 86 1.3 NW 48 65 26 35 1005.2 1005.2 3.4
20/04:24am 15.7 8.6 13.5 87 1.2 NW 43 63 23 34 1005.3 1005.3 3.4
20/04:00am 15.4 9.4 13.4 88 1.1 NW 37 50 20 27 1005.5 1005.5 3.4
20/03:43am 15.3 8.6 13.3 88 1.1 NW 41 61 22 33 1005.6 1005.6 3.2
20/03:30am 16.3 9.9 13.2 82 1.7 NW 39 52 21 28 1005.8 1005.8 2.2
20/03:00am 16.1 9.2 12.7 80 1.9 NW 41 57 22 31 1006.0 1006.0 2.2
20/02:30am 16.1 9.9 12.7 80 1.9 NW 37 52 20 28 1006.5 1006.5 2.2
20/02:08am 16.0 8.6 12.6 80 1.9 NW 43 63 23 34 1006.8 1006.8 2.2
20/02:00am 15.9 8.5 12.5 80 1.9 NW 43 59 23 32 1006.9 1006.9 2.2
20/01:30am 15.9 9.3 12.5 80 1.9 NW 39 56 21 30 1007.3 1007.3 2.2
20/01:08am 16.0 9.1 12.7 81 1.8 NW 41 61 22 33 1007.3 1007.3 2.2
20/01:00am 16.0 8.6 12.6 80 1.9 NW 43 61 23 33 1007.3 1007.3 2.2
20/12:44am 16.0 9.3 12.4 79 2.0 NW 39 57 21 31 1007.5 1007.5 2.2

Other formats

Comma delimited format used in spreadsheet applications
http://www.bom.gov.au/fwo/IDT60801/IDT60801.95985.axf

JavaScript Object Notation format (JSON) in row-major order
http://www.bom.gov.au/fwo/IDT60801/IDT60801.95985.json

Data quality

Most of these data are generated automatically and are frequently updated. Quality checks on data are not normally performed. It is possible for incorrect values to appear. Refer to information at About Latest Weather Observations and please check the disclaimer before using these data.